sensor_id;sensor_type;location;lat;lon;timestamp;P1;durP1;ratioP1;P2;durP2;ratioP2
74044;SDS011;62389;51.412;5.436;2024-02-21T00:01:39;15.05;;;5.18;;
74044;SDS011;62389;51.412;5.436;2024-02-21T00:04:05;15.73;;;5.60;;
74044;SDS011;62389;51.412;5.436;2024-02-21T00:06:31;13.07;;;5.07;;
74044;SDS011;62389;51.412;5.436;2024-02-21T00:08:56;15.85;;;5.82;;
74044;SDS011;62389;51.412;5.436;2024-02-21T00:11:22;12.50;;;4.53;;
74044;SDS011;62389;51.412;5.436;2024-02-21T00:13:47;18.23;;;4.90;;
74044;SDS011;62389;51.412;5.436;2024-02-21T00:16:12;14.75;;;5.53;;
74044;SDS011;62389;51.412;5.436;2024-02-21T00:18:40;14.20;;;5.68;;
74044;SDS011;62389;51.412;5.436;2024-02-21T00:21:05;11.27;;;4.15;;
74044;SDS011;62389;51.412;5.436;2024-02-21T00:23:31;13.45;;;5.22;;
74044;SDS011;62389;51.412;5.436;2024-02-21T00:25:56;13.02;;;5.10;;
74044;SDS011;62389;51.412;5.436;2024-02-21T00:28:21;12.68;;;4.55;;
74044;SDS011;62389;51.412;5.436;2024-02-21T00:30:47;11.35;;;4.88;;
74044;SDS011;62389;51.412;5.436;2024-02-21T00:33:13;13.07;;;5.22;;
74044;SDS011;62389;51.412;5.436;2024-02-21T00:35:39;17.88;;;5.82;;
74044;SDS011;62389;51.412;5.436;2024-02-21T00:38:04;9.35;;;4.47;;
74044;SDS011;62389;51.412;5.436;2024-02-21T00:40:29;13.02;;;4.80;;
74044;SDS011;62389;51.412;5.436;2024-02-21T00:42:55;16.48;;;5.75;;
74044;SDS011;62389;51.412;5.436;2024-02-21T00:45:20;16.75;;;4.90;;
74044;SDS011;62389;51.412;5.436;2024-02-21T00:47:45;16.08;;;5.28;;
74044;SDS011;62389;51.412;5.436;2024-02-21T00:50:11;11.80;;;5.45;;
74044;SDS011;62389;51.412;5.436;2024-02-21T00:52:36;10.25;;;4.22;;
74044;SDS011;62389;51.412;5.436;2024-02-21T00:55:02;13.32;;;4.63;;
74044;SDS011;62389;51.412;5.436;2024-02-21T00:57:27;10.43;;;4.38;;
74044;SDS011;62389;51.412;5.436;2024-02-21T00:59:53;10.20;;;4.65;;
74044;SDS011;62389;51.412;5.436;2024-02-21T01:02:18;13.25;;;4.85;;
74044;SDS011;62389;51.412;5.436;2024-02-21T01:04:44;12.02;;;4.28;;
74044;SDS011;62389;51.412;5.436;2024-02-21T01:07:09;13.40;;;4.70;;
74044;SDS011;62389;51.412;5.436;2024-02-21T01:09:34;10.57;;;4.07;;
74044;SDS011;62389;51.412;5.436;2024-02-21T01:12:00;9.55;;;4.20;;
74044;SDS011;62389;51.412;5.436;2024-02-21T01:14:25;11.10;;;4.40;;
74044;SDS011;62389;51.412;5.436;2024-02-21T01:16:50;8.52;;;4.55;;
74044;SDS011;62389;51.412;5.436;2024-02-21T01:19:16;11.43;;;4.70;;
74044;SDS011;62389;51.412;5.436;2024-02-21T01:21:41;12.52;;;4.25;;
74044;SDS011;62389;51.412;5.436;2024-02-21T01:24:06;11.05;;;4.43;;
74044;SDS011;62389;51.412;5.436;2024-02-21T01:26:32;9.73;;;4.32;;
74044;SDS011;62389;51.412;5.436;2024-02-21T01:28:57;8.00;;;3.85;;
74044;SDS011;62389;51.412;5.436;2024-02-21T01:31:22;10.25;;;4.68;;
74044;SDS011;62389;51.412;5.436;2024-02-21T01:33:48;9.02;;;4.78;;
74044;SDS011;62389;51.412;5.436;2024-02-21T01:36:13;9.88;;;4.38;;
74044;SDS011;62389;51.412;5.436;2024-02-21T01:38:38;8.32;;;4.18;;
74044;SDS011;62389;51.412;5.436;2024-02-21T01:41:04;11.15;;;5.00;;
74044;SDS011;62389;51.412;5.436;2024-02-21T01:43:29;11.48;;;4.20;;
74044;SDS011;62389;51.412;5.436;2024-02-21T01:45:55;14.80;;;4.28;;
74044;SDS011;62389;51.412;5.436;2024-02-21T01:48:22;11.65;;;4.65;;
74044;SDS011;62389;51.412;5.436;2024-02-21T01:50:48;13.48;;;4.28;;
74044;SDS011;62389;51.412;5.436;2024-02-21T01:56:09;8.07;;;4.18;;
74044;SDS011;62389;51.412;5.436;2024-02-21T01:58:36;18.55;;;5.10;;
74044;SDS011;62389;51.412;5.436;2024-02-21T02:01:04;10.30;;;4.10;;
74044;SDS011;62389;51.412;5.436;2024-02-21T02:03:29;9.73;;;4.55;;
74044;SDS011;62389;51.412;5.436;2024-02-21T02:05:55;7.53;;;3.60;;
74044;SDS011;62389;51.412;5.436;2024-02-21T02:08:20;9.27;;;3.65;;
74044;SDS011;62389;51.412;5.436;2024-02-21T02:10:49;8.73;;;3.58;;
74044;SDS011;62389;51.412;5.436;2024-02-21T02:13:14;7.63;;;3.78;;
74044;SDS011;62389;51.412;5.436;2024-02-21T02:15:44;11.20;;;3.33;;
74044;SDS011;62389;51.412;5.436;2024-02-21T02:18:13;11.35;;;4.30;;
74044;SDS011;62389;51.412;5.436;2024-02-21T02:20:40;10.23;;;4.00;;
74044;SDS011;62389;51.412;5.436;2024-02-21T02:25:46;9.75;;;3.95;;
74044;SDS011;62389;51.412;5.436;2024-02-21T02:28:17;9.15;;;3.50;;
74044;SDS011;62389;51.412;5.436;2024-02-21T02:30:42;11.93;;;4.40;;
74044;SDS011;62389;51.412;5.436;2024-02-21T02:33:08;11.13;;;3.85;;
74044;SDS011;62389;51.412;5.436;2024-02-21T02:35:33;10.68;;;4.15;;
74044;SDS011;62389;51.412;5.436;2024-02-21T02:38:01;10.77;;;3.83;;
74044;SDS011;62389;51.412;5.436;2024-02-21T02:40:27;6.63;;;3.92;;
74044;SDS011;62389;51.412;5.436;2024-02-21T02:42:52;15.23;;;4.35;;
74044;SDS011;62389;51.412;5.436;2024-02-21T02:47:47;9.25;;;3.92;;
74044;SDS011;62389;51.412;5.436;2024-02-21T02:50:13;11.18;;;3.58;;
74044;SDS011;62389;51.412;5.436;2024-02-21T02:52:38;11.85;;;4.47;;
74044;SDS011;62389;51.412;5.436;2024-02-21T02:55:04;8.38;;;4.18;;
74044;SDS011;62389;51.412;5.436;2024-02-21T02:57:30;12.93;;;4.50;;
74044;SDS011;62389;51.412;5.436;2024-02-21T02:59:55;9.48;;;4.07;;
74044;SDS011;62389;51.412;5.436;2024-02-21T03:02:21;11.30;;;3.15;;
74044;SDS011;62389;51.412;5.436;2024-02-21T03:04:46;9.55;;;3.63;;
74044;SDS011;62389;51.412;5.436;2024-02-21T03:07:12;10.27;;;3.60;;
74044;SDS011;62389;51.412;5.436;2024-02-21T03:09:38;10.50;;;3.83;;
74044;SDS011;62389;51.412;5.436;2024-02-21T03:12:05;6.30;;;3.03;;
74044;SDS011;62389;51.412;5.436;2024-02-21T03:14:31;11.30;;;3.60;;
74044;SDS011;62389;51.412;5.436;2024-02-21T03:17:00;11.18;;;3.45;;
74044;SDS011;62389;51.412;5.436;2024-02-21T03:19:26;9.02;;;3.47;;
74044;SDS011;62389;51.412;5.436;2024-02-21T03:21:52;8.98;;;4.40;;
74044;SDS011;62389;51.412;5.436;2024-02-21T03:24:18;8.95;;;3.03;;
74044;SDS011;62389;51.412;5.436;2024-02-21T03:26:43;9.65;;;3.47;;
74044;SDS011;62389;51.412;5.436;2024-02-21T03:29:10;8.02;;;3.85;;
74044;SDS011;62389;51.412;5.436;2024-02-21T03:31:36;7.53;;;3.97;;
74044;SDS011;62389;51.412;5.436;2024-02-21T03:34:01;7.47;;;2.97;;
74044;SDS011;62389;51.412;5.436;2024-02-21T03:36:27;9.40;;;3.10;;
74044;SDS011;62389;51.412;5.436;2024-02-21T03:38:53;8.85;;;3.38;;
74044;SDS011;62389;51.412;5.436;2024-02-21T03:41:19;6.88;;;3.20;;
74044;SDS011;62389;51.412;5.436;2024-02-21T03:43:44;6.07;;;2.97;;
74044;SDS011;62389;51.412;5.436;2024-02-21T03:46:10;8.73;;;4.15;;
74044;SDS011;62389;51.412;5.436;2024-02-21T03:48:35;8.40;;;3.65;;
74044;SDS011;62389;51.412;5.436;2024-02-21T03:51:01;13.95;;;4.13;;
74044;SDS011;62389;51.412;5.436;2024-02-21T03:53:27;13.07;;;4.57;;
74044;SDS011;62389;51.412;5.436;2024-02-21T03:55:53;12.38;;;4.43;;
74044;SDS011;62389;51.412;5.436;2024-02-21T03:58:18;9.07;;;4.82;;
74044;SDS011;62389;51.412;5.436;2024-02-21T04:00:44;11.63;;;5.03;;
74044;SDS011;62389;51.412;5.436;2024-02-21T04:03:09;9.77;;;4.70;;
74044;SDS011;62389;51.412;5.436;2024-02-21T04:05:34;14.45;;;5.55;;
74044;SDS011;62389;51.412;5.436;2024-02-21T04:08:00;13.98;;;5.40;;
74044;SDS011;62389;51.412;5.436;2024-02-21T04:10:29;10.65;;;5.07;;
74044;SDS011;62389;51.412;5.436;2024-02-21T04:12:55;13.60;;;4.95;;
74044;SDS011;62389;51.412;5.436;2024-02-21T04:15:20;12.70;;;5.50;;
74044;SDS011;62389;51.412;5.436;2024-02-21T04:17:45;13.68;;;6.07;;
74044;SDS011;62389;51.412;5.436;2024-02-21T04:20:15;14.20;;;5.05;;
74044;SDS011;62389;51.412;5.436;2024-02-21T04:22:45;11.68;;;4.90;;
74044;SDS011;62389;51.412;5.436;2024-02-21T04:25:10;14.38;;;5.40;;
74044;SDS011;62389;51.412;5.436;2024-02-21T04:27:37;15.02;;;4.72;;
74044;SDS011;62389;51.412;5.436;2024-02-21T04:30:03;14.07;;;4.97;;
74044;SDS011;62389;51.412;5.436;2024-02-21T04:32:29;11.88;;;5.47;;
74044;SDS011;62389;51.412;5.436;2024-02-21T04:34:55;14.43;;;5.50;;
74044;SDS011;62389;51.412;5.436;2024-02-21T04:37:20;14.48;;;6.53;;
74044;SDS011;62389;51.412;5.436;2024-02-21T04:39:45;13.70;;;5.20;;
74044;SDS011;62389;51.412;5.436;2024-02-21T04:42:11;15.15;;;4.88;;
74044;SDS011;62389;51.412;5.436;2024-02-21T04:44:36;12.80;;;5.50;;
74044;SDS011;62389;51.412;5.436;2024-02-21T04:47:03;13.32;;;5.75;;
74044;SDS011;62389;51.412;5.436;2024-02-21T04:49:28;11.68;;;5.72;;
74044;SDS011;62389;51.412;5.436;2024-02-21T04:51:54;12.77;;;5.07;;
74044;SDS011;62389;51.412;5.436;2024-02-21T04:54:19;12.50;;;5.63;;
74044;SDS011;62389;51.412;5.436;2024-02-21T04:56:45;15.60;;;6.15;;
74044;SDS011;62389;51.412;5.436;2024-02-21T04:59:10;12.18;;;4.68;;
74044;SDS011;62389;51.412;5.436;2024-02-21T05:01:36;13.48;;;4.95;;
74044;SDS011;62389;51.412;5.436;2024-02-21T05:04:01;10.63;;;5.00;;
74044;SDS011;62389;51.412;5.436;2024-02-21T05:06:27;13.02;;;5.15;;
74044;SDS011;62389;51.412;5.436;2024-02-21T05:08:53;15.52;;;5.82;;
74044;SDS011;62389;51.412;5.436;2024-02-21T05:13:45;13.87;;;5.17;;
74044;SDS011;62389;51.412;5.436;2024-02-21T05:16:10;14.13;;;5.68;;
74044;SDS011;62389;51.412;5.436;2024-02-21T05:18:36;11.65;;;5.13;;
74044;SDS011;62389;51.412;5.436;2024-02-21T05:21:01;13.35;;;4.95;;
74044;SDS011;62389;51.412;5.436;2024-02-21T05:23:27;14.35;;;5.30;;
74044;SDS011;62389;51.412;5.436;2024-02-21T05:25:52;10.10;;;5.03;;
74044;SDS011;62389;51.412;5.436;2024-02-21T05:28:17;13.55;;;5.80;;
74044;SDS011;62389;51.412;5.436;2024-02-21T05:30:43;17.73;;;5.15;;
74044;SDS011;62389;51.412;5.436;2024-02-21T05:33:08;12.52;;;5.45;;
74044;SDS011;62389;51.412;5.436;2024-02-21T05:35:34;10.55;;;5.15;;
74044;SDS011;62389;51.412;5.436;2024-02-21T05:38:00;8.63;;;4.47;;
74044;SDS011;62389;51.412;5.436;2024-02-21T05:40:25;13.73;;;5.32;;
74044;SDS011;62389;51.412;5.436;2024-02-21T05:42:51;14.60;;;5.97;;
74044;SDS011;62389;51.412;5.436;2024-02-21T05:45:20;12.90;;;5.28;;
74044;SDS011;62389;51.412;5.436;2024-02-21T05:47:45;10.35;;;4.90;;
74044;SDS011;62389;51.412;5.436;2024-02-21T05:50:10;10.45;;;4.75;;
74044;SDS011;62389;51.412;5.436;2024-02-21T05:52:36;9.55;;;4.63;;
74044;SDS011;62389;51.412;5.436;2024-02-21T05:55:01;11.68;;;4.53;;
74044;SDS011;62389;51.412;5.436;2024-02-21T05:57:27;14.90;;;4.75;;
74044;SDS011;62389;51.412;5.436;2024-02-21T05:59:52;9.32;;;5.13;;
74044;SDS011;62389;51.412;5.436;2024-02-21T06:02:17;12.75;;;5.13;;
74044;SDS011;62389;51.412;5.436;2024-02-21T06:04:43;14.57;;;5.43;;
74044;SDS011;62389;51.412;5.436;2024-02-21T06:07:09;11.10;;;4.85;;
74044;SDS011;62389;51.412;5.436;2024-02-21T06:09:34;16.55;;;5.65;;
74044;SDS011;62389;51.412;5.436;2024-02-21T06:12:00;11.90;;;5.50;;
74044;SDS011;62389;51.412;5.436;2024-02-21T06:14:25;13.05;;;5.25;;
74044;SDS011;62389;51.412;5.436;2024-02-21T06:16:51;12.70;;;5.93;;
74044;SDS011;62389;51.412;5.436;2024-02-21T06:19:16;12.98;;;4.78;;
74044;SDS011;62389;51.412;5.436;2024-02-21T06:21:42;12.73;;;5.50;;
74044;SDS011;62389;51.412;5.436;2024-02-21T06:24:07;13.43;;;5.90;;
74044;SDS011;62389;51.412;5.436;2024-02-21T06:26:32;20.23;;;6.13;;
74044;SDS011;62389;51.412;5.436;2024-02-21T06:28:58;13.95;;;6.10;;
74044;SDS011;62389;51.412;5.436;2024-02-21T06:31:24;13.88;;;5.70;;
74044;SDS011;62389;51.412;5.436;2024-02-21T06:33:50;11.65;;;5.70;;
74044;SDS011;62389;51.412;5.436;2024-02-21T06:36:15;15.57;;;5.93;;
74044;SDS011;62389;51.412;5.436;2024-02-21T06:38:41;15.05;;;5.47;;
74044;SDS011;62389;51.412;5.436;2024-02-21T06:41:06;14.93;;;5.22;;
74044;SDS011;62389;51.412;5.436;2024-02-21T06:43:40;13.43;;;5.30;;
74044;SDS011;62389;51.412;5.436;2024-02-21T06:46:05;13.20;;;5.55;;
74044;SDS011;62389;51.412;5.436;2024-02-21T06:48:30;13.95;;;6.32;;
74044;SDS011;62389;51.412;5.436;2024-02-21T06:50:55;13.90;;;6.63;;
74044;SDS011;62389;51.412;5.436;2024-02-21T06:53:21;14.73;;;5.57;;
74044;SDS011;62389;51.412;5.436;2024-02-21T06:55:46;15.48;;;5.97;;
74044;SDS011;62389;51.412;5.436;2024-02-21T06:58:11;11.38;;;6.18;;
74044;SDS011;62389;51.412;5.436;2024-02-21T07:00:38;12.15;;;5.85;;
74044;SDS011;62389;51.412;5.436;2024-02-21T07:03:05;13.40;;;5.88;;
74044;SDS011;62389;51.412;5.436;2024-02-21T07:05:30;17.30;;;6.53;;
74044;SDS011;62389;51.412;5.436;2024-02-21T07:07:55;13.90;;;5.88;;
74044;SDS011;62389;51.412;5.436;2024-02-21T07:10:21;15.02;;;7.13;;
74044;SDS011;62389;51.412;5.436;2024-02-21T07:12:46;16.10;;;6.45;;
74044;SDS011;62389;51.412;5.436;2024-02-21T07:15:12;14.02;;;6.10;;
74044;SDS011;62389;51.412;5.436;2024-02-21T07:17:37;12.32;;;5.60;;
74044;SDS011;62389;51.412;5.436;2024-02-21T07:20:03;13.02;;;5.72;;
74044;SDS011;62389;51.412;5.436;2024-02-21T07:22:28;11.35;;;5.32;;
74044;SDS011;62389;51.412;5.436;2024-02-21T07:24:54;14.15;;;5.90;;
74044;SDS011;62389;51.412;5.436;2024-02-21T07:27:19;14.13;;;6.47;;
74044;SDS011;62389;51.412;5.436;2024-02-21T07:29:45;12.20;;;5.78;;
74044;SDS011;62389;51.412;5.436;2024-02-21T07:32:12;12.18;;;4.93;;
74044;SDS011;62389;51.412;5.436;2024-02-21T07:34:38;11.73;;;5.22;;
74044;SDS011;62389;51.412;5.436;2024-02-21T07:37:03;14.25;;;5.07;;
74044;SDS011;62389;51.412;5.436;2024-02-21T07:39:28;12.65;;;5.28;;
74044;SDS011;62389;51.412;5.436;2024-02-21T07:41:54;13.50;;;5.25;;
74044;SDS011;62389;51.412;5.436;2024-02-21T07:44:19;9.30;;;4.60;;
74044;SDS011;62389;51.412;5.436;2024-02-21T07:46:44;10.75;;;4.95;;
74044;SDS011;62389;51.412;5.436;2024-02-21T07:49:10;9.43;;;4.88;;
74044;SDS011;62389;51.412;5.436;2024-02-21T07:51:35;13.63;;;4.88;;
74044;SDS011;62389;51.412;5.436;2024-02-21T07:54:01;9.38;;;4.82;;
74044;SDS011;62389;51.412;5.436;2024-02-21T07:56:27;10.88;;;4.93;;
74044;SDS011;62389;51.412;5.436;2024-02-21T07:58:52;11.07;;;4.55;;
74044;SDS011;62389;51.412;5.436;2024-02-21T08:01:21;11.63;;;4.72;;
74044;SDS011;62389;51.412;5.436;2024-02-21T08:03:46;11.75;;;4.57;;
74044;SDS011;62389;51.412;5.436;2024-02-21T08:06:12;9.43;;;4.40;;
74044;SDS011;62389;51.412;5.436;2024-02-21T08:08:38;10.43;;;5.25;;
74044;SDS011;62389;51.412;5.436;2024-02-21T08:11:04;9.88;;;4.28;;
74044;SDS011;62389;51.412;5.436;2024-02-21T08:13:29;8.35;;;4.22;;
74044;SDS011;62389;51.412;5.436;2024-02-21T08:15:55;8.63;;;3.92;;
74044;SDS011;62389;51.412;5.436;2024-02-21T08:18:20;8.20;;;3.90;;
74044;SDS011;62389;51.412;5.436;2024-02-21T08:20:46;6.72;;;3.90;;
74044;SDS011;62389;51.412;5.436;2024-02-21T08:23:11;7.82;;;3.58;;
74044;SDS011;62389;51.412;5.436;2024-02-21T08:25:37;8.73;;;3.92;;
74044;SDS011;62389;51.412;5.436;2024-02-21T08:28:02;7.78;;;3.97;;
74044;SDS011;62389;51.412;5.436;2024-02-21T08:30:28;9.55;;;4.45;;
74044;SDS011;62389;51.412;5.436;2024-02-21T08:32:53;9.63;;;4.80;;
74044;SDS011;62389;51.412;5.436;2024-02-21T08:35:21;7.85;;;4.05;;
74044;SDS011;62389;51.412;5.436;2024-02-21T08:37:50;9.20;;;4.72;;
74044;SDS011;62389;51.412;5.436;2024-02-21T08:40:15;7.75;;;4.10;;
74044;SDS011;62389;51.412;5.436;2024-02-21T08:42:46;7.60;;;3.92;;
74044;SDS011;62389;51.412;5.436;2024-02-21T08:45:12;6.68;;;3.42;;
74044;SDS011;62389;51.412;5.436;2024-02-21T08:47:40;9.73;;;4.45;;
74044;SDS011;62389;51.412;5.436;2024-02-21T08:50:06;9.23;;;4.85;;
74044;SDS011;62389;51.412;5.436;2024-02-21T08:52:32;9.63;;;4.00;;
74044;SDS011;62389;51.412;5.436;2024-02-21T08:54:57;9.43;;;4.32;;
74044;SDS011;62389;51.412;5.436;2024-02-21T08:57:23;9.57;;;4.30;;
74044;SDS011;62389;51.412;5.436;2024-02-21T08:59:48;12.35;;;4.97;;
74044;SDS011;62389;51.412;5.436;2024-02-21T09:02:14;10.15;;;4.90;;
74044;SDS011;62389;51.412;5.436;2024-02-21T09:04:41;9.57;;;4.63;;
74044;SDS011;62389;51.412;5.436;2024-02-21T09:07:06;9.55;;;5.05;;
74044;SDS011;62389;51.412;5.436;2024-02-21T09:09:32;9.27;;;5.45;;
74044;SDS011;62389;51.412;5.436;2024-02-21T09:11:58;12.88;;;4.95;;
74044;SDS011;62389;51.412;5.436;2024-02-21T09:14:30;12.05;;;4.65;;
74044;SDS011;62389;51.412;5.436;2024-02-21T09:16:56;10.13;;;4.78;;
74044;SDS011;62389;51.412;5.436;2024-02-21T09:19:21;12.10;;;4.38;;
74044;SDS011;62389;51.412;5.436;2024-02-21T09:21:47;9.20;;;4.68;;
74044;SDS011;62389;51.412;5.436;2024-02-21T09:24:12;17.25;;;6.13;;
74044;SDS011;62389;51.412;5.436;2024-02-21T09:26:37;8.23;;;4.07;;
74044;SDS011;62389;51.412;5.436;2024-02-21T09:29:03;10.65;;;5.03;;
74044;SDS011;62389;51.412;5.436;2024-02-21T09:31:28;15.02;;;5.20;;
74044;SDS011;62389;51.412;5.436;2024-02-21T09:33:54;10.38;;;5.55;;
74044;SDS011;62389;51.412;5.436;2024-02-21T09:36:19;10.75;;;5.13;;
74044;SDS011;62389;51.412;5.436;2024-02-21T09:38:46;13.07;;;4.82;;
74044;SDS011;62389;51.412;5.436;2024-02-21T09:41:16;9.98;;;4.93;;
74044;SDS011;62389;51.412;5.436;2024-02-21T09:43:49;12.38;;;5.03;;
74044;SDS011;62389;51.412;5.436;2024-02-21T09:46:19;7.88;;;4.65;;
74044;SDS011;62389;51.412;5.436;2024-02-21T09:51:15;8.98;;;4.53;;
74044;SDS011;62389;51.412;5.436;2024-02-21T09:53:42;10.57;;;4.63;;
74044;SDS011;62389;51.412;5.436;2024-02-21T09:56:08;8.70;;;4.75;;
74044;SDS011;62389;51.412;5.436;2024-02-21T09:58:34;11.02;;;4.70;;
74044;SDS011;62389;51.412;5.436;2024-02-21T10:00:59;8.68;;;4.47;;
74044;SDS011;62389;51.412;5.436;2024-02-21T10:03:25;8.38;;;4.55;;
74044;SDS011;62389;51.412;5.436;2024-02-21T10:05:51;12.18;;;3.90;;
74044;SDS011;62389;51.412;5.436;2024-02-21T10:08:16;9.38;;;3.63;;
74044;SDS011;62389;51.412;5.436;2024-02-21T10:10:43;7.68;;;4.00;;
74044;SDS011;62389;51.412;5.436;2024-02-21T10:13:09;6.25;;;3.80;;
74044;SDS011;62389;51.412;5.436;2024-02-21T10:15:36;7.07;;;3.97;;
74044;SDS011;62389;51.412;5.436;2024-02-21T10:18:01;10.13;;;4.22;;
74044;SDS011;62389;51.412;5.436;2024-02-21T10:20:31;11.60;;;4.32;;
74044;SDS011;62389;51.412;5.436;2024-02-21T10:23:00;9.18;;;3.88;;
74044;SDS011;62389;51.412;5.436;2024-02-21T10:25:33;8.07;;;3.70;;
74044;SDS011;62389;51.412;5.436;2024-02-21T10:27:58;7.65;;;3.35;;
74044;SDS011;62389;51.412;5.436;2024-02-21T10:30:24;9.60;;;4.22;;
74044;SDS011;62389;51.412;5.436;2024-02-21T10:32:52;10.25;;;4.00;;
74044;SDS011;62389;51.412;5.436;2024-02-21T10:35:28;7.07;;;3.33;;
74044;SDS011;62389;51.412;5.436;2024-02-21T10:37:55;7.00;;;3.42;;
74044;SDS011;62389;51.412;5.436;2024-02-21T10:40:24;6.32;;;3.25;;
74044;SDS011;62389;51.412;5.436;2024-02-21T10:42:57;7.70;;;3.22;;
74044;SDS011;62389;51.412;5.436;2024-02-21T10:48:06;7.57;;;3.53;;
74044;SDS011;62389;51.412;5.436;2024-02-21T10:53:29;9.55;;;3.90;;
74044;SDS011;62389;51.412;5.436;2024-02-21T10:56:25;8.00;;;3.15;;
74044;SDS011;62389;51.412;5.436;2024-02-21T10:58:53;8.50;;;3.45;;
74044;SDS011;62389;51.412;5.436;2024-02-21T11:01:21;6.78;;;2.95;;
74044;SDS011;62389;51.412;5.436;2024-02-21T11:03:50;8.90;;;3.15;;
74044;SDS011;62389;51.412;5.436;2024-02-21T11:06:19;13.30;;;4.03;;
74044;SDS011;62389;51.412;5.436;2024-02-21T11:08:46;8.25;;;3.83;;
74044;SDS011;62389;51.412;5.436;2024-02-21T11:11:13;6.75;;;3.20;;
74044;SDS011;62389;51.412;5.436;2024-02-21T11:13:43;6.95;;;3.28;;
74044;SDS011;62389;51.412;5.436;2024-02-21T11:16:11;8.30;;;3.67;;
74044;SDS011;62389;51.412;5.436;2024-02-21T11:18:45;7.40;;;4.18;;
74044;SDS011;62389;51.412;5.436;2024-02-21T11:21:11;7.15;;;3.13;;
74044;SDS011;62389;51.412;5.436;2024-02-21T11:23:36;9.38;;;3.63;;
74044;SDS011;62389;51.412;5.436;2024-02-21T11:26:08;8.13;;;3.85;;
74044;SDS011;62389;51.412;5.436;2024-02-21T11:28:44;10.50;;;3.60;;
74044;SDS011;62389;51.412;5.436;2024-02-21T11:31:13;8.57;;;3.90;;
74044;SDS011;62389;51.412;5.436;2024-02-21T11:33:42;13.57;;;3.67;;
74044;SDS011;62389;51.412;5.436;2024-02-21T11:36:11;6.90;;;3.40;;
74044;SDS011;62389;51.412;5.436;2024-02-21T11:38:49;11.25;;;3.70;;
74044;SDS011;62389;51.412;5.436;2024-02-21T11:41:15;7.40;;;3.05;;
74044;SDS011;62389;51.412;5.436;2024-02-21T11:43:41;8.73;;;3.38;;
74044;SDS011;62389;51.412;5.436;2024-02-21T11:46:06;8.05;;;3.35;;
74044;SDS011;62389;51.412;5.436;2024-02-21T11:48:32;7.13;;;3.58;;
74044;SDS011;62389;51.412;5.436;2024-02-21T11:50:57;8.45;;;3.08;;
74044;SDS011;62389;51.412;5.436;2024-02-21T11:53:23;6.13;;;3.33;;
74044;SDS011;62389;51.412;5.436;2024-02-21T11:55:49;8.57;;;3.33;;
74044;SDS011;62389;51.412;5.436;2024-02-21T11:58:15;7.05;;;3.47;;
74044;SDS011;62389;51.412;5.436;2024-02-21T12:00:41;6.65;;;3.95;;
74044;SDS011;62389;51.412;5.436;2024-02-21T12:03:06;9.52;;;3.63;;
74044;SDS011;62389;51.412;5.436;2024-02-21T12:05:32;7.07;;;3.50;;
74044;SDS011;62389;51.412;5.436;2024-02-21T12:07:58;8.57;;;3.53;;
74044;SDS011;62389;51.412;5.436;2024-02-21T12:10:23;8.60;;;3.53;;
74044;SDS011;62389;51.412;5.436;2024-02-21T12:12:51;9.38;;;3.70;;
74044;SDS011;62389;51.412;5.436;2024-02-21T12:15:17;8.60;;;3.60;;
74044;SDS011;62389;51.412;5.436;2024-02-21T12:17:43;8.60;;;3.22;;
74044;SDS011;62389;51.412;5.436;2024-02-21T12:20:10;7.70;;;4.05;;
74044;SDS011;62389;51.412;5.436;2024-02-21T12:22:36;8.00;;;3.28;;
74044;SDS011;62389;51.412;5.436;2024-02-21T12:25:24;9.13;;;3.63;;
74044;SDS011;62389;51.412;5.436;2024-02-21T12:27:50;6.30;;;3.10;;
74044;SDS011;62389;51.412;5.436;2024-02-21T12:30:16;6.93;;;3.85;;
74044;SDS011;62389;51.412;5.436;2024-02-21T12:32:42;8.18;;;3.40;;
74044;SDS011;62389;51.412;5.436;2024-02-21T12:35:07;9.15;;;3.28;;
74044;SDS011;62389;51.412;5.436;2024-02-21T12:37:33;9.13;;;4.03;;
74044;SDS011;62389;51.412;5.436;2024-02-21T12:39:59;11.30;;;3.17;;
74044;SDS011;62389;51.412;5.436;2024-02-21T12:42:25;6.18;;;3.20;;
74044;SDS011;62389;51.412;5.436;2024-02-21T12:44:51;5.95;;;2.80;;
74044;SDS011;62389;51.412;5.436;2024-02-21T12:47:17;8.43;;;2.95;;
74044;SDS011;62389;51.412;5.436;2024-02-21T12:49:44;8.07;;;3.05;;
74044;SDS011;62389;51.412;5.436;2024-02-21T12:52:10;8.85;;;3.15;;
74044;SDS011;62389;51.412;5.436;2024-02-21T12:54:36;7.85;;;2.33;;
74044;SDS011;62389;51.412;5.436;2024-02-21T12:57:01;5.82;;;2.67;;
74044;SDS011;62389;51.412;5.436;2024-02-21T12:59:28;6.60;;;3.40;;
74044;SDS011;62389;51.412;5.436;2024-02-21T13:01:56;7.65;;;3.28;;
74044;SDS011;62389;51.412;5.436;2024-02-21T13:04:21;5.43;;;2.80;;
74044;SDS011;62389;51.412;5.436;2024-02-21T13:06:47;7.28;;;3.10;;
74044;SDS011;62389;51.412;5.436;2024-02-21T13:09:13;8.52;;;3.05;;
74044;SDS011;62389;51.412;5.436;2024-02-21T13:11:39;8.63;;;3.38;;
74044;SDS011;62389;51.412;5.436;2024-02-21T13:14:06;6.03;;;3.03;;
74044;SDS011;62389;51.412;5.436;2024-02-21T13:16:31;4.90;;;2.55;;
74044;SDS011;62389;51.412;5.436;2024-02-21T13:18:59;8.95;;;2.67;;
74044;SDS011;62389;51.412;5.436;2024-02-21T13:21:24;5.55;;;2.53;;
74044;SDS011;62389;51.412;5.436;2024-02-21T13:23:50;4.40;;;2.63;;
74044;SDS011;62389;51.412;5.436;2024-02-21T13:26:16;7.00;;;2.75;;
74044;SDS011;62389;51.412;5.436;2024-02-21T13:28:41;8.30;;;2.92;;
74044;SDS011;62389;51.412;5.436;2024-02-21T13:31:07;6.43;;;2.88;;
74044;SDS011;62389;51.412;5.436;2024-02-21T13:33:32;7.18;;;2.20;;
74044;SDS011;62389;51.412;5.436;2024-02-21T13:35:58;9.20;;;2.85;;
74044;SDS011;62389;51.412;5.436;2024-02-21T13:38:23;4.90;;;2.30;;
74044;SDS011;62389;51.412;5.436;2024-02-21T13:40:49;7.00;;;2.67;;
74044;SDS011;62389;51.412;5.436;2024-02-21T13:43:15;5.90;;;2.63;;
74044;SDS011;62389;51.412;5.436;2024-02-21T13:45:40;6.28;;;2.75;;
74044;SDS011;62389;51.412;5.436;2024-02-21T13:48:30;6.90;;;2.45;;
74044;SDS011;62389;51.412;5.436;2024-02-21T13:50:56;4.40;;;1.92;;
74044;SDS011;62389;51.412;5.436;2024-02-21T13:53:21;3.97;;;2.55;;
74044;SDS011;62389;51.412;5.436;2024-02-21T13:55:48;4.38;;;2.15;;
74044;SDS011;62389;51.412;5.436;2024-02-21T13:58:13;5.40;;;1.92;;
74044;SDS011;62389;51.412;5.436;2024-02-21T14:00:40;4.43;;;2.10;;
74044;SDS011;62389;51.412;5.436;2024-02-21T14:03:05;7.13;;;2.70;;
74044;SDS011;62389;51.412;5.436;2024-02-21T14:05:30;5.50;;;2.35;;
74044;SDS011;62389;51.412;5.436;2024-02-21T14:07:56;4.43;;;2.40;;
74044;SDS011;62389;51.412;5.436;2024-02-21T14:10:21;6.15;;;2.45;;
74044;SDS011;62389;51.412;5.436;2024-02-21T14:12:47;5.55;;;2.65;;
74044;SDS011;62389;51.412;5.436;2024-02-21T14:15:15;7.80;;;2.50;;
74044;SDS011;62389;51.412;5.436;2024-02-21T14:17:41;5.90;;;2.65;;
74044;SDS011;62389;51.412;5.436;2024-02-21T14:20:07;8.02;;;2.53;;
74044;SDS011;62389;51.412;5.436;2024-02-21T14:22:33;7.40;;;2.67;;
74044;SDS011;62389;51.412;5.436;2024-02-21T14:24:59;4.63;;;2.95;;
74044;SDS011;62389;51.412;5.436;2024-02-21T14:27:25;3.97;;;2.30;;
74044;SDS011;62389;51.412;5.436;2024-02-21T14:29:50;6.93;;;2.42;;
74044;SDS011;62389;51.412;5.436;2024-02-21T14:32:16;4.80;;;2.95;;
74044;SDS011;62389;51.412;5.436;2024-02-21T14:34:41;6.80;;;2.03;;
74044;SDS011;62389;51.412;5.436;2024-02-21T14:37:06;6.63;;;2.25;;
74044;SDS011;62389;51.412;5.436;2024-02-21T14:39:32;8.50;;;2.45;;
74044;SDS011;62389;51.412;5.436;2024-02-21T14:41:59;8.57;;;2.80;;
74044;SDS011;62389;51.412;5.436;2024-02-21T14:44:25;5.32;;;2.72;;
74044;SDS011;62389;51.412;5.436;2024-02-21T14:46:50;4.55;;;2.38;;
74044;SDS011;62389;51.412;5.436;2024-02-21T14:49:16;4.40;;;2.75;;
74044;SDS011;62389;51.412;5.436;2024-02-21T14:51:41;6.25;;;2.70;;
74044;SDS011;62389;51.412;5.436;2024-02-21T14:54:07;4.25;;;2.50;;